SVA3215 MMMY-KSAN
Flight info
| Callsign | SVA3215 |
|---|---|
| Flight time | N/A |
| Altitude | 38000 |
| Route | MMMY/12 MTY1A MTY DCT MIDRA UT11 PPE UJ3 TANRI DCT TIJ DCT KSAN/27 |
| Aircraft | A20N/M-LB2/M1 |
Departure
| Time | 2026-04-22 03:27 |
|---|---|
| Airport | Monterrey International Airport (MMMY) |
Arrival
| Time | N/A |
|---|---|
| Airport | San Diego International Airport (KSAN) |
| Time | Latitude | Longitude | Altitude | Speed | Heading |
|---|---|---|---|---|---|
| 2026-04-22 02:56 | 25.77963 | -100.11484 | 1281 ft | 0 kts | 122° |
| 2026-04-22 03:18 | 25.77962 | -100.11483 | 1263 ft | 0 kts | 122° |
| 2026-04-22 03:20 | 25.77963 | -100.11484 | 1263 ft | 2 kts | 121° |
| 2026-04-22 03:20 | 25.77969 | -100.11506 | 1282 ft | 1 kts | 75° |
| 2026-04-22 03:20 | 25.77971 | -100.11505 | 1282 ft | 1 kts | 46° |
| 2026-04-22 03:20 | 25.77986 | -100.11505 | 1283 ft | 5 kts | 357° |
| 2026-04-22 03:21 | 25.78005 | -100.11505 | 1282 ft | 3 kts | 8° |
| 2026-04-22 03:21 | 25.78030 | -100.11495 | 1283 ft | 6 kts | 18° |
| 2026-04-22 03:21 | 25.78077 | -100.11515 | 1284 ft | 8 kts | 312° |
| 2026-04-22 03:21 | 25.78129 | -100.11599 | 1285 ft | 20 kts | 300° |
| 2026-04-22 03:22 | 25.78210 | -100.11747 | 1288 ft | 22 kts | 301° |
| 2026-04-22 03:22 | 25.78250 | -100.11796 | 1289 ft | 0 kts | 337° |
| 2026-04-22 03:23 | 25.78256 | -100.11799 | 1289 ft | 3 kts | 344° |
| 2026-04-22 03:23 | 25.78283 | -100.11797 | 1290 ft | 6 kts | 15° |
| 2026-04-22 03:23 | 25.78297 | -100.11789 | 1290 ft | 0 kts | 30° |
| 2026-04-22 03:24 | 25.78322 | -100.11773 | 1291 ft | 8 kts | 32° |
| 2026-04-22 03:24 | 25.78352 | -100.11751 | 1291 ft | 7 kts | 33° |
| 2026-04-22 03:25 | 25.78389 | -100.11723 | 1292 ft | 6 kts | 36° |
| 2026-04-22 03:25 | 25.78399 | -100.11685 | 1291 ft | 5 kts | 101° |
| 2026-04-22 03:25 | 25.78392 | -100.11668 | 1291 ft | 0 kts | 118° |
| 2026-04-22 03:26 | 25.78386 | -100.11656 | 1291 ft | 15 kts | 118° |
| 2026-04-22 03:26 | 25.78190 | -100.11299 | 1282 ft | 93 kts | 121° |
| 2026-04-22 03:27 | 25.77709 | -100.10439 | 1278 ft | 165 kts | 117° |
| 2026-04-22 03:27 | 25.77090 | -100.09273 | 1787 ft | 181 kts | 118° |
| 2026-04-22 03:27 | 25.76412 | -100.08016 | 2338 ft | 206 kts | 118° |
| 2026-04-22 03:27 | 25.75654 | -100.06567 | 2772 ft | 229 kts | 118° |
| 2026-04-22 03:28 | 25.74822 | -100.04974 | 3281 ft | 246 kts | 119° |
| 2026-04-22 03:28 | 25.73935 | -100.03322 | 4010 ft | 252 kts | 120° |
| 2026-04-22 03:28 | 25.73023 | -100.01653 | 4825 ft | 254 kts | 121° |
| 2026-04-22 03:28 | 25.72084 | -99.99980 | 5571 ft | 258 kts | 124° |
| 2026-04-22 03:29 | 25.70733 | -99.98661 | 6185 ft | 265 kts | 153° |
| 2026-04-22 03:29 | 25.68916 | -99.98308 | 6849 ft | 272 kts | 183° |
| 2026-04-22 03:29 | 25.67135 | -99.99042 | 7491 ft | 280 kts | 213° |
| 2026-04-22 03:29 | 25.65824 | -100.00601 | 8229 ft | 281 kts | 230° |
| 2026-04-22 03:30 | 25.64758 | -100.02417 | 8942 ft | 284 kts | 246° |
| 2026-04-22 03:30 | 25.64338 | -100.04542 | 9705 ft | 282 kts | 265° |
| 2026-04-22 03:30 | 25.64550 | -100.06685 | 10440 ft | 280 kts | 285° |
| 2026-04-22 03:30 | 25.65292 | -100.08671 | 11201 ft | 279 kts | 294° |
| 2026-04-22 03:31 | 25.66236 | -100.10550 | 11943 ft | 279 kts | 297° |
| 2026-04-22 03:31 | 25.67274 | -100.12382 | 12700 ft | 281 kts | 299° |
| 2026-04-22 03:31 | 25.68377 | -100.14174 | 13494 ft | 282 kts | 299° |
| 2026-04-22 03:31 | 25.69423 | -100.15981 | 14254 ft | 283 kts | 297° |
| 2026-04-22 03:32 | 25.70485 | -100.17832 | 14891 ft | 287 kts | 297° |
| 2026-04-22 03:32 | 25.71575 | -100.19703 | 15514 ft | 291 kts | 298° |
| 2026-04-22 03:32 | 25.72691 | -100.21594 | 16118 ft | 296 kts | 297° |
| 2026-04-22 03:32 | 25.73836 | -100.23520 | 16717 ft | 301 kts | 297° |
| 2026-04-22 03:33 | 25.75000 | -100.25465 | 17384 ft | 305 kts | 297° |
| 2026-04-22 03:33 | 25.76180 | -100.27435 | 18036 ft | 308 kts | 297° |
| 2026-04-22 03:33 | 25.77375 | -100.29427 | 18666 ft | 311 kts | 297° |
| 2026-04-22 03:33 | 25.78557 | -100.31388 | 19538 ft | 300 kts | 297° |
| 2026-04-22 03:34 | 25.79680 | -100.33242 | 20539 ft | 287 kts | 297° |
| 2026-04-22 03:34 | 25.80774 | -100.35051 | 21405 ft | 279 kts | 297° |
| 2026-04-22 03:34 | 25.81849 | -100.36837 | 22098 ft | 278 kts | 297° |
| 2026-04-22 03:34 | 25.82922 | -100.38625 | 22714 ft | 279 kts | 297° |
| 2026-04-22 03:35 | 25.85340 | -100.42661 | 23939 ft | 281 kts | 297° |
| 2026-04-22 03:35 | 25.86428 | -100.44481 | 24309 ft | 287 kts | 297° |
| 2026-04-22 03:35 | 25.87549 | -100.46363 | 24503 ft | 298 kts | 297° |
| 2026-04-22 03:36 | 25.88711 | -100.48319 | 24701 ft | 309 kts | 297° |
| 2026-04-22 03:36 | 25.89920 | -100.50344 | 24821 ft | 320 kts | 297° |
| 2026-04-22 03:36 | 25.91168 | -100.52438 | 24974 ft | 330 kts | 297° |
| 2026-04-22 03:36 | 25.92435 | -100.54572 | 25154 ft | 341 kts | 297° |
| 2026-04-22 03:37 | 25.93760 | -100.56808 | 25338 ft | 351 kts | 297° |
| 2026-04-22 03:37 | 25.95120 | -100.59097 | 25640 ft | 358 kts | 297° |
| 2026-04-22 03:37 | 25.96503 | -100.61416 | 26052 ft | 361 kts | 297° |
| 2026-04-22 03:37 | 25.97894 | -100.63752 | 26456 ft | 363 kts | 297° |
| 2026-04-22 03:38 | 25.99291 | -100.66099 | 26851 ft | 365 kts | 297° |
| 2026-04-22 03:38 | 26.00695 | -100.68460 | 27232 ft | 367 kts | 297° |
| 2026-04-22 03:38 | 26.02108 | -100.70834 | 27601 ft | 369 kts | 297° |
| 2026-04-22 03:38 | 26.03526 | -100.73218 | 27961 ft | 370 kts | 297° |
| 2026-04-22 03:39 | 26.04930 | -100.75580 | 28313 ft | 372 kts | 297° |
| 2026-04-22 03:39 | 26.06362 | -100.77989 | 28661 ft | 374 kts | 297° |
| 2026-04-22 03:39 | 26.07797 | -100.80407 | 28950 ft | 376 kts | 297° |
| 2026-04-22 03:39 | 26.09242 | -100.82845 | 29272 ft | 378 kts | 297° |
| 2026-04-22 03:40 | 26.10690 | -100.85284 | 29653 ft | 379 kts | 297° |
| 2026-04-22 03:40 | 26.12147 | -100.87738 | 29993 ft | 381 kts | 297° |
| 2026-04-22 03:40 | 26.13609 | -100.90202 | 30290 ft | 382 kts | 297° |
| 2026-04-22 03:40 | 26.15076 | -100.92678 | 30599 ft | 383 kts | 297° |
| 2026-04-22 03:41 | 26.16520 | -100.95121 | 30889 ft | 384 kts | 297° |
| 2026-04-22 03:41 | 26.17987 | -100.97598 | 31288 ft | 382 kts | 297° |
| 2026-04-22 03:41 | 26.19453 | -101.00075 | 31512 ft | 385 kts | 297° |
| 2026-04-22 03:41 | 26.20935 | -101.02582 | 31638 ft | 390 kts | 297° |
| 2026-04-22 03:42 | 26.22436 | -101.05125 | 31752 ft | 395 kts | 297° |
| 2026-04-22 03:42 | 26.23903 | -101.07726 | 31899 ft | 398 kts | 294° |
| 2026-04-22 03:42 | 26.24974 | -101.09859 | 32112 ft | 397 kts | 294° |
| 2026-04-22 03:42 | 26.26290 | -101.12521 | 32687 ft | 390 kts | 295° |
| 2026-04-22 03:43 | 26.27601 | -101.15177 | 32918 ft | 393 kts | 295° |
| 2026-04-22 03:43 | 26.28913 | -101.17856 | 33164 ft | 394 kts | 295° |
| 2026-04-22 03:43 | 26.30202 | -101.20507 | 33477 ft | 394 kts | 295° |
| 2026-04-22 03:43 | 26.31502 | -101.23197 | 33828 ft | 394 kts | 295° |
| 2026-04-22 03:44 | 26.32797 | -101.25886 | 34180 ft | 393 kts | 294° |
| 2026-04-22 03:44 | 26.34082 | -101.28571 | 34516 ft | 392 kts | 294° |
| 2026-04-22 03:44 | 26.35370 | -101.31248 | 34853 ft | 391 kts | 294° |
| 2026-04-22 03:44 | 26.36647 | -101.33916 | 35180 ft | 389 kts | 294° |
| 2026-04-22 03:45 | 26.37917 | -101.36576 | 35443 ft | 388 kts | 294° |
| 2026-04-22 03:45 | 26.39187 | -101.39234 | 35664 ft | 388 kts | 294° |
| 2026-04-22 03:45 | 26.40439 | -101.41849 | 35972 ft | 372 kts | 294° |
| 2026-04-22 03:45 | 26.41607 | -101.44283 | 35810 ft | 347 kts | 293° |
| 2026-04-22 03:46 | 26.42644 | -101.46600 | 36083 ft | 321 kts | 290° |
| 2026-04-22 03:46 | 26.43520 | -101.48788 | 36252 ft | 296 kts | 290° |
| 2026-04-22 03:46 | 26.44389 | -101.50817 | 36138 ft | 284 kts | 291° |
| 2026-04-22 03:46 | 26.45258 | -101.52778 | 35741 ft | 282 kts | 291° |
| 2026-04-22 03:47 | 26.46117 | -101.54749 | 35216 ft | 284 kts | 291° |
| 2026-04-22 03:47 | 26.46983 | -101.56732 | 34710 ft | 285 kts | 291° |
| 2026-04-22 03:47 | 26.47859 | -101.58723 | 34230 ft | 286 kts | 291° |
| 2026-04-22 03:47 | 26.48445 | -101.60044 | 33820 ft | 289 kts | 291° |
| 2026-04-22 03:48 | 26.49644 | -101.62795 | 32750 ft | 301 kts | 292° |
| 2026-04-22 03:48 | 26.50255 | -101.64206 | 32172 ft | 309 kts | 291° |
| 2026-04-22 03:48 | 26.51170 | -101.66431 | 31353 ft | 320 kts | 290° |
| 2026-04-22 03:48 | 26.52341 | -101.69481 | 30571 ft | 324 kts | 289° |
| 2026-04-22 03:49 | 26.53189 | -101.71826 | 30071 ft | 326 kts | 289° |
| 2026-04-22 03:49 | 26.53977 | -101.74198 | 29484 ft | 327 kts | 287° |
| 2026-04-22 03:49 | 26.54707 | -101.76605 | 28917 ft | 328 kts | 285° |
| 2026-04-22 03:49 | 26.55386 | -101.79037 | 28363 ft | 328 kts | 286° |
| 2026-04-22 03:50 | 26.56144 | -101.81449 | 27819 ft | 331 kts | 288° |
| 2026-04-22 03:50 | 26.56974 | -101.83854 | 27274 ft | 332 kts | 289° |
| 2026-04-22 03:50 | 26.57825 | -101.86217 | 26737 ft | 333 kts | 289° |
| 2026-04-22 03:50 | 26.58634 | -101.88644 | 26180 ft | 333 kts | 286° |
| 2026-04-22 03:51 | 26.59445 | -101.91087 | 25316 ft | 343 kts | 289° |
| 2026-04-22 03:51 | 26.60370 | -101.93628 | 24238 ft | 362 kts | 290° |
| 2026-04-22 03:51 | 26.61307 | -101.96189 | 24220 ft | 347 kts | 290° |
| 2026-04-22 03:51 | 26.62348 | -101.98535 | 24517 ft | 324 kts | 296° |
| 2026-04-22 03:52 | 26.63490 | -102.00530 | 25171 ft | 288 kts | 300° |
| 2026-04-22 03:52 | 26.64240 | -102.01708 | 25309 ft | 275 kts | 301° |
| 2026-04-22 03:52 | 26.65702 | -102.03996 | 24774 ft | 276 kts | 298° |
| 2026-04-22 03:52 | 26.66740 | -102.05867 | 23976 ft | 292 kts | 296° |
| 2026-04-22 03:53 | 26.67796 | -102.07882 | 23045 ft | 309 kts | 296° |
| 2026-04-22 03:53 | 26.68508 | -102.09291 | 22401 ft | 319 kts | 295° |